Time;durP1;ratioP1;P1;durP2;ratioP2;P2;SDS_P1;SDS_P2;PMS_P1;PMS_P2;Temp;Humidity;BMP_temperature;BMP_pressure;BME280_temperature;BME280_humidity;BME280_pressure;Samples;Min_cycle;Max_cycle;Signal;HPM_P1;HPM_P2
2022/11/12 00:00:47;;;;;;;10.82;7.57;;;;;;;6.92;83.89;99809.97;4975961;28;20552;-83
2022/11/12 00:03:13;;;;;;;9.85;7.30;;;;;;;6.80;83.34;99809.25;4976193;28;20390;-83
2022/11/12 00:05:38;;;;;;;16.08;8.68;;;;;;;6.81;83.49;99815.31;4976044;28;20039;-83
2022/11/12 00:08:04;;;;;;;15.20;9.30;;;;;;;6.77;83.77;99816.50;4976000;28;20046;-83
2022/11/12 00:10:31;;;;;;;12.02;8.50;;;;;;;6.68;84.24;99808.53;4975894;28;20042;-83
2022/11/12 00:12:57;;;;;;;14.43;9.23;;;;;;;6.71;84.53;99810.03;4978013;28;20035;-83
2022/11/12 00:15:23;;;;;;;12.23;8.63;;;;;;;6.70;84.15;99808.41;4993551;28;20041;-83
2022/11/12 00:17:48;;;;;;;13.38;9.57;;;;;;;6.73;84.40;99799.50;4979165;28;20113;-83
2022/11/12 00:20:14;;;;;;;13.73;9.95;;;;;;;6.75;84.00;99810.63;4975561;28;20042;-83
2022/11/12 00:22:40;;;;;;;16.55;9.93;;;;;;;6.73;84.35;99812.53;4978746;28;20034;-83
2022/11/12 00:25:06;;;;;;;13.00;9.73;;;;;;;6.71;84.50;99805.66;4977561;28;20030;-83
2022/11/12 00:27:33;;;;;;;13.38;9.40;;;;;;;6.72;84.40;99809.13;4977120;28;20447;-83
2022/11/12 00:29:59;;;;;;;14.50;9.40;;;;;;;6.72;84.12;99816.94;4976568;28;20050;-83
2022/11/12 00:32:25;;;;;;;14.70;10.05;;;;;;;6.70;84.01;99811.00;4975945;28;20038;-83
2022/11/12 00:34:50;;;;;;;14.85;9.70;;;;;;;6.66;83.85;99812.25;4976186;28;20504;-83
2022/11/12 00:37:16;;;;;;;14.85;10.15;;;;;;;6.66;84.54;99807.88;4976611;28;20035;-82
2022/11/12 00:39:41;;;;;;;13.93;10.38;;;;;;;6.67;84.65;99798.25;4976253;28;20120;-85
2022/11/12 00:42:08;;;;;;;16.05;11.07;;;;;;;6.65;84.70;99793.16;4977291;28;20094;-85
2022/11/12 00:44:33;;;;;;;16.20;10.70;;;;;;;6.64;84.50;99794.13;4978053;28;20491;-85
2022/11/12 00:46:59;;;;;;;17.67;10.25;;;;;;;6.63;83.98;99791.66;4977555;28;20042;-85
2022/11/12 00:49:24;;;;;;;16.73;10.23;;;;;;;6.61;84.29;99793.56;4977750;28;20034;-84
2022/11/12 00:51:51;;;;;;;16.23;10.63;;;;;;;6.54;83.70;99788.06;4978522;28;20066;-82
2022/11/12 00:54:17;;;;;;;16.70;10.45;;;;;;;6.53;83.81;99794.22;4975460;28;20058;-84
2022/11/12 00:56:46;;;;;;;15.18;11.02;;;;;;;6.48;82.95;99786.00;4978550;28;20122;-84
2022/11/12 00:59:11;;;;;;;17.23;11.02;;;;;;;6.41;83.12;99790.06;4975822;28;20030;-84
2022/11/12 01:01:38;;;;;;;15.05;10.27;;;;;;;6.39;83.00;99790.19;4975674;28;20462;-85
2022/11/12 01:04:04;;;;;;;14.82;10.70;;;;;;;6.33;82.70;99789.91;4975629;28;20089;-85
2022/11/12 01:06:30;;;;;;;13.70;10.02;;;;;;;6.33;82.75;99789.91;4973157;28;20038;-84
2022/11/12 01:08:56;;;;;;;14.98;9.85;;;;;;;6.34;83.19;99783.72;4974366;28;20529;-85
2022/11/12 01:11:29;;;;;;;15.40;10.32;;;;;;;6.32;82.74;99780.44;4974366;28;20234;-84
2022/11/12 01:13:57;;;;;;;17.80;11.32;;;;;;;6.28;82.60;99784.25;4973609;28;20099;-84
2022/11/12 01:16:27;;;;;;;18.52;10.68;;;;;;;6.29;83.87;99780.69;4973356;28;20089;-82
2022/11/12 01:18:57;;;;;;;16.20;11.07;;;;;;;6.31;83.99;99778.78;4972365;28;20039;-82
2022/11/12 01:21:28;;;;;;;18.38;11.55;;;;;;;6.30;84.14;99779.75;4972445;28;20105;-82
2022/11/12 01:23:57;;;;;;;18.55;11.20;;;;;;;6.36;84.33;99781.81;4972384;28;20045;-82
2022/11/12 01:26:23;;;;;;;18.77;10.52;;;;;;;6.36;84.29;99781.81;4972382;28;20470;-82
2022/11/12 01:28:49;;;;;;;17.08;10.90;;;;;;;6.38;84.58;99777.31;4972400;28;20443;-82
2022/11/12 01:31:23;;;;;;;15.20;10.60;;;;;;;6.35;84.14;99778.38;4975152;28;20134;-82
2022/11/12 01:33:54;;;;;;;16.15;11.25;;;;;;;6.36;84.15;99782.66;4972192;28;20038;-82
2022/11/12 01:36:20;;;;;;;17.73;10.77;;;;;;;6.36;83.98;99774.00;4970951;28;20046;-82
2022/11/12 01:38:47;;;;;;;15.20;10.63;;;;;;;6.36;83.80;99784.44;4972145;28;20034;-82
2022/11/12 01:41:21;;;;;;;16.08;9.68;;;;;;;6.35;83.61;99782.75;4974384;28;20038;-82
2022/11/12 01:43:47;;;;;;;16.30;9.85;;;;;;;6.35;84.17;99772.34;4971749;28;20075;-82
2022/11/12 01:46:27;;;;;;;12.32;8.77;;;;;;;6.32;84.00;99770.00;4966575;28;20078;-82
2022/11/12 01:49:03;;;;;;;14.18;9.15;;;;;;;6.38;84.40;99769.47;4971645;28;20047;-82
2022/11/12 01:51:41;;;;;;;11.43;8.70;;;;;;;6.41;84.21;99772.63;4971217;28;20039;-82
2022/11/12 01:54:12;;;;;;;11.82;9.35;;;;;;;6.44;84.30;99771.56;4968806;28;20039;-82
2022/11/12 01:56:38;;;;;;;;;;;;;;;6.46;84.59;99769.63;4972254;28;20093;-82
2022/11/12 01:59:14;;;;;;;13.13;8.93;;;;;;;6.42;83.82;99763.06;4971501;28;19930;-82
2022/11/12 02:01:41;;;;;;;12.75;8.82;;;;;;;6.41;83.25;99769.19;4970763;28;20552;-82
2022/11/12 02:04:06;;;;;;;12.05;9.07;;;;;;;6.46;83.39;99767.03;4971350;28;20071;-82
2022/11/12 02:06:34;;;;;;;12.50;9.07;;;;;;;6.45;83.25;99762.78;4972164;28;20460;-82
2022/11/12 02:09:00;;;;;;;12.98;9.25;;;;;;;6.34;82.83;99765.47;4969504;28;20031;-82
2022/11/12 02:11:25;;;;;;;11.77;8.70;;;;;;;6.25;82.94;99764.50;4971611;28;20087;-82
2022/11/12 02:14:03;;;;;;;11.20;8.52;;;;;;;6.12;83.50;99767.34;4971483;28;20709;-82
2022/11/12 02:16:40;;;;;;;11.20;8.30;;;;;;;6.20;84.29;99765.84;4970517;28;20038;-82
2022/11/12 02:19:13;;;;;;;11.80;8.88;;;;;;;6.24;84.16;99767.22;4970267;28;20038;-82
2022/11/12 02:21:39;;;;;;;10.23;8.23;;;;;;;6.31;84.42;99768.38;4971411;28;20105;-82
2022/11/12 02:24:10;;;;;;;10.35;8.48;;;;;;;6.34;84.00;99765.47;4970782;28;20487;-82
2022/11/12 02:26:39;;;;;;;;;;;;;;;6.40;84.36;99767.56;4971332;28;20058;-82
2022/11/12 02:29:05;;;;;;;11.30;8.00;;;;;;;6.42;84.73;99763.06;4970779;28;20301;-82
2022/11/12 02:31:30;;;;;;;10.73;8.15;;;;;;;6.44;84.28;99767.16;4971602;28;20038;-82
2022/11/12 02:33:56;;;;;;;10.23;8.40;;;;;;;6.38;84.13;99756.44;4970990;28;20088;-81
2022/11/12 02:36:22;;;;;;;9.63;7.75;;;;;;;6.45;83.88;99773.19;4971123;28;20373;-82
2022/11/12 02:38:48;;;;;;;10.95;8.20;;;;;;;6.48;84.70;99767.75;4970825;28;20035;-82
2022/11/12 02:41:14;;;;;;;9.65;7.40;;;;;;;6.49;84.25;99772.00;4970815;28;20042;-82
2022/11/12 02:43:40;;;;;;;9.20;6.93;;;;;;;6.46;84.13;99769.63;4971416;28;20035;-82
2022/11/12 02:46:06;;;;;;;8.82;6.70;;;;;;;6.40;84.18;99760.56;4971524;28;20026;-82
2022/11/12 02:48:32;;;;;;;8.63;6.65;;;;;;;6.36;83.76;99763.59;4971275;28;20054;-82
2022/11/12 02:50:58;;;;;;;8.93;7.22;;;;;;;6.11;84.21;99764.84;4970962;28;20439;-82
2022/11/12 02:53:23;;;;;;;8.95;6.82;;;;;;;5.95;84.94;99770.53;4962831;28;20050;-82
2022/11/12 02:55:50;;;;;;;10.05;6.28;;;;;;;5.88;85.84;99769.38;4970970;28;20039;-82
2022/11/12 02:58:15;;;;;;;9.40;6.82;;;;;;;5.68;86.49;99762.38;4970851;28;20082;-82
2022/11/12 03:00:41;;;;;;;8.98;6.68;;;;;;;5.53;87.26;99762.72;4970074;28;20037;-82
2022/11/12 03:03:06;;;;;;;8.40;6.30;;;;;;;5.51;87.68;99756.78;4970163;28;20069;-82
2022/11/12 03:05:35;;;;;;;10.65;7.22;;;;;;;5.47;87.09;99765.81;4970953;28;20038;-82
2022/11/12 03:08:06;;;;;;;9.40;7.50;;;;;;;5.53;87.61;99764.50;4970563;28;20038;-82
2022/11/12 03:10:35;;;;;;;9.82;7.65;;;;;;;5.64;87.34;99762.66;4970190;28;20053;-82
2022/11/12 03:13:01;;;;;;;10.13;7.72;;;;;;;5.79;87.07;99770.13;4970585;28;20043;-82
2022/11/12 03:15:28;;;;;;;9.88;7.50;;;;;;;5.89;86.55;99771.00;4970293;28;20085;-82
2022/11/12 03:17:53;;;;;;;11.63;7.95;;;;;;;5.98;86.68;99775.47;4970345;28;20062;-82
2022/11/12 03:20:19;;;;;;;11.07;7.85;;;;;;;6.02;85.62;99763.84;4967693;28;20508;-82
2022/11/12 03:23:01;;;;;;;10.25;7.25;;;;;;;6.07;85.10;99766.06;4970079;28;20034;-82
2022/11/12 03:25:28;;;;;;;9.13;7.03;;;;;;;6.09;84.73;99762.38;4969189;28;20062;-82
2022/11/12 03:28:10;;;;;;;10.50;7.22;;;;;;;6.10;85.07;99757.97;4968115;28;20133;-82
2022/11/12 03:30:39;;;;;;;9.45;7.18;;;;;;;6.15;85.24;99761.84;4969615;28;20055;-82
2022/11/12 03:33:08;;;;;;;9.98;7.30;;;;;;;6.20;85.38;99763.25;4970260;28;20657;-82
2022/11/12 03:35:34;;;;;;;9.68;7.43;;;;;;;6.17;84.82;99749.50;4970219;28;20093;-82
2022/11/12 03:38:03;;;;;;;11.77;7.78;;;;;;;6.24;84.83;99743.75;4970602;28;20035;-82
2022/11/12 03:40:29;;;;;;;10.70;7.47;;;;;;;6.20;84.66;99752.81;4970424;28;20050;-82
2022/11/12 03:42:55;;;;;;;8.75;7.18;;;;;;;6.25;84.50;99755.84;4969601;28;20047;-82
2022/11/12 03:45:24;;;;;;;10.50;7.50;;;;;;;6.26;84.39;99753.13;4970208;28;20042;-82
2022/11/12 03:47:53;;;;;;;9.38;7.45;;;;;;;6.26;84.03;99754.91;4970140;28;20578;-82
2022/11/12 03:50:22;;;;;;;9.57;8.20;;;;;;;6.24;83.54;99759.41;4970182;28;20147;-82
2022/11/12 03:52:58;;;;;;;9.80;7.70;;;;;;;6.24;83.36;99759.41;4967744;28;20030;-82
2022/11/12 03:55:28;;;;;;;8.85;7.22;;;;;;;6.24;83.30;99764.59;4970493;28;20077;-83
2022/11/12 03:57:56;;;;;;;10.13;7.68;;;;;;;6.23;83.55;99761.19;4970020;28;20035;-83
2022/11/12 04:00:25;;;;;;;9.02;7.72;;;;;;;6.13;83.27;99761.16;4970008;28;20494;-83
2022/11/12 04:02:51;;;;;;;9.18;7.72;;;;;;;6.20;83.45;99763.25;4969590;28;20544;-82
2022/11/12 04:10:56;;;;;;;11.75;8.55;;;;;;;6.13;83.49;99758.56;4981693;28;20053;-82
2022/11/12 04:13:27;;;;;;;15.43;9.13;;;;;;;6.12;83.64;99756.91;4970225;28;20039;-82
2022/11/12 04:21:54;;;;;;;10.85;7.80;;;;;;;6.03;82.89;99762.88;4969820;28;20045;-82
2022/11/12 04:27:28;;;;;;;8.40;6.70;;;;;;;5.94;83.13;99774.09;4969844;28;20093;-82
2022/11/12 04:32:46;;;;;;;7.68;5.78;;;;;;;5.88;83.47;99779.78;4969435;28;20078;-82
2022/11/12 04:35:12;;;;;;;6.65;5.07;;;;;;;5.82;83.41;99782.91;4968829;28;20574;-83
2022/11/12 04:37:44;;;;;;;8.60;5.70;;;;;;;5.71;83.72;99767.34;4969494;28;20122;-83
2022/11/12 04:45:54;;;;;;;9.00;5.78;;;;;;;5.76;83.76;99786.00;4973589;28;20042;-82
2022/11/12 04:48:22;;;;;;;8.40;6.18;;;;;;;5.75;83.57;99785.16;4973273;28;20060;-82
2022/11/12 04:50:53;;;;;;;8.20;5.45;;;;;;;5.74;83.45;99790.50;4972910;28;20034;-82
2022/11/12 04:53:19;;;;;;;7.75;5.50;;;;;;;5.69;83.11;99784.84;4970395;28;20089;-82
2022/11/12 04:55:48;;;;;;;6.95;5.95;;;;;;;5.63;83.16;99770.56;4973161;28;20058;-82
2022/11/12 04:58:13;;;;;;;9.00;6.55;;;;;;;5.60;83.26;99776.84;4972957;28;20062;-82
2022/11/12 05:00:38;;;;;;;9.05;6.30;;;;;;;5.60;83.56;99787.28;4973011;28;20066;-82
2022/11/12 05:03:04;;;;;;;8.45;6.32;;;;;;;5.56;83.82;99779.84;4973313;28;20066;-82
2022/11/12 05:05:29;;;;;;;8.07;5.72;;;;;;;5.57;83.80;99790.13;4971909;28;20142;-82
2022/11/12 05:07:59;;;;;;;8.65;5.57;;;;;;;5.58;83.54;99783.16;4973059;28;20041;-82
2022/11/12 05:10:25;;;;;;;5.85;4.88;;;;;;;5.54;83.57;99782.56;4972668;28;20050;-82
2022/11/12 05:12:50;;;;;;;6.90;5.10;;;;;;;5.43;83.02;99784.41;4972325;28;20030;-82
2022/11/12 05:15:17;;;;;;;8.05;4.85;;;;;;;5.40;84.55;99784.63;4972870;28;20475;-82
2022/11/12 05:17:43;;;;;;;7.93;5.28;;;;;;;5.42;85.02;99783.59;4972482;28;20035;-82
2022/11/12 05:20:13;;;;;;;6.78;4.88;;;;;;;5.46;84.63;99787.59;4972293;28;20034;-83
2022/11/12 05:22:40;;;;;;;6.90;5.07;;;;;;;5.46;84.26;99779.78;4972620;28;20483;-82
2022/11/12 05:25:07;;;;;;;7.53;5.60;;;;;;;5.45;83.63;99779.88;4972526;28;20034;-83
2022/11/12 05:27:34;;;;;;;7.38;5.93;;;;;;;5.44;83.43;99779.06;4972728;28;20566;-82
2022/11/12 05:29:59;;;;;;;6.30;5.25;;;;;;;5.34;83.24;99775.59;4971427;28;20057;-82
2022/11/12 05:32:25;;;;;;;7.30;5.00;;;;;;;5.14;84.09;99779.78;4972108;28;20046;-82
2022/11/12 05:34:51;;;;;;;6.00;5.00;;;;;;;5.15;84.96;99776.22;4972151;28;20034;-82
2022/11/12 05:37:18;;;;;;;5.93;4.70;;;;;;;5.06;84.15;99780.41;4972188;28;20034;-82
2022/11/12 05:39:43;;;;;;;8.10;4.70;;;;;;;5.00;85.11;99777.47;4971839;28;20395;-82
2022/11/12 05:42:09;;;;;;;6.40;4.70;;;;;;;4.82;85.33;99767.59;4971195;28;20093;-82
2022/11/12 05:44:35;;;;;;;6.53;4.78;;;;;;;4.96;86.40;99773.47;4972102;28;20094;-82
2022/11/12 05:47:00;;;;;;;6.55;4.80;;;;;;;5.06;86.59;99782.19;4972255;28;20552;-82
2022/11/12 05:49:26;;;;;;;6.78;4.38;;;;;;;5.12;86.26;99775.66;4971833;28;20039;-82
2022/11/12 05:51:51;;;;;;;6.00;4.75;;;;;;;5.14;85.83;99778.97;4971603;28;20038;-82
2022/11/12 05:54:17;;;;;;;6.68;5.15;;;;;;;5.20;85.32;99775.84;4969531;28;20051;-82
2022/11/12 05:56:43;;;;;;;5.75;4.32;;;;;;;5.24;85.15;99779.88;4972350;28;20046;-82
2022/11/12 05:59:12;;;;;;;6.05;4.25;;;;;;;5.25;85.29;99781.53;4972349;28;20114;-82
2022/11/12 06:01:48;;;;;;;6.18;4.10;;;;;;;5.24;85.24;99790.28;4971191;28;20037;-82
2022/11/12 06:04:14;;;;;;;6.97;4.78;;;;;;;5.22;85.38;99780.00;4971948;28;20034;-82
2022/11/12 06:06:41;;;;;;;6.18;4.57;;;;;;;5.29;85.08;99798.53;4967042;28;20114;-82
2022/11/12 06:09:09;;;;;;;5.95;4.75;;;;;;;5.24;84.90;99801.50;4971662;28;20118;-82
2022/11/12 06:11:34;;;;;;;6.28;4.93;;;;;;;5.29;84.94;99804.56;4971560;28;20039;-82
2022/11/12 06:14:01;;;;;;;8.00;5.57;;;;;;;5.27;83.52;99805.63;4972197;28;20385;-82
2022/11/12 06:16:28;;;;;;;6.32;4.45;;;;;;;5.09;83.00;99803.56;4971571;28;20038;-82
2022/11/12 06:18:54;;;;;;;6.32;5.00;;;;;;;4.98;83.84;99801.00;4971549;28;20078;-82
2022/11/12 06:21:20;;;;;;;6.25;4.78;;;;;;;4.70;83.73;99801.53;4971447;28;20071;-82
2022/11/12 06:23:56;;;;;;;8.52;6.20;;;;;;;4.37;85.48;99818.78;4971938;28;20046;-82
2022/11/12 06:26:23;;;;;;;13.13;7.28;;;;;;;4.21;85.89;99815.72;4970263;28;20035;-82
2022/11/12 06:28:49;;;;;;;10.15;7.43;;;;;;;4.10;86.90;99807.91;4971902;28;20035;-82
2022/11/12 06:31:16;;;;;;;18.40;8.85;;;;;;;4.08;87.29;99820.16;4970247;28;20057;-82
2022/11/12 06:33:42;;;;;;;17.75;8.25;;;;;;;3.98;87.61;99813.09;4969067;28;20038;-82
2022/11/12 06:36:10;;;;;;;13.88;7.32;;;;;;;3.94;88.26;99813.44;4971597;28;20413;-82
2022/11/12 06:38:38;;;;;;;11.60;7.93;;;;;;;3.94;88.50;99814.25;4970925;28;20489;-82
2022/11/12 06:41:06;;;;;;;8.68;6.18;;;;;;;4.07;88.52;99821.13;4969961;28;20053;-82
2022/11/12 06:43:33;;;;;;;10.75;6.10;;;;;;;4.10;87.12;99813.13;4971834;28;20844;-82
2022/11/12 06:46:09;;;;;;;6.70;5.47;;;;;;;4.11;86.50;99814.75;4970735;28;20101;-82
2022/11/12 06:48:35;;;;;;;6.25;4.53;;;;;;;4.12;86.33;99811.22;4970967;28;20106;-82
2022/11/12 06:51:26;;;;;;;5.32;4.70;;;;;;;4.22;86.16;99819.97;4971388;28;20042;-82
2022/11/12 06:53:54;;;;;;;5.20;4.70;;;;;;;4.20;85.03;99814.06;4962306;28;20042;-82
2022/11/12 06:56:19;;;;;;;5.93;4.95;;;;;;;4.16;85.21;99812.66;4970960;28;20043;-82
2022/11/12 06:58:45;;;;;;;4.88;4.20;;;;;;;4.29;85.33;99818.56;4971099;28;20041;-82
2022/11/12 07:01:16;;;;;;;5.40;4.68;;;;;;;4.38;84.36;99823.06;4969877;28;20039;-82
2022/11/12 07:03:43;;;;;;;6.68;4.80;;;;;;;4.26;84.03;99813.59;4969077;28;20431;-82
2022/11/12 07:06:17;;;;;;;5.85;4.97;;;;;;;4.40;84.78;99821.16;4970486;28;20039;-81
2022/11/12 07:08:43;;;;;;;7.07;5.07;;;;;;;4.52;85.25;99817.59;4969489;28;20169;-82
2022/11/12 07:11:30;;;;;;;6.45;5.35;;;;;;;4.72;84.36;99828.22;4970466;28;20105;-81
2022/11/12 07:13:55;;;;;;;7.55;5.85;;;;;;;4.84;84.66;99822.06;4969077;28;20047;-81
2022/11/12 07:16:21;;;;;;;6.53;4.97;;;;;;;4.84;83.91;99817.69;4970316;28;20360;-81
2022/11/12 07:18:48;;;;;;;5.80;4.85;;;;;;;4.83;82.10;99821.22;4970325;28;20376;-82
2022/11/12 07:21:18;;;;;;;6.93;5.07;;;;;;;4.97;83.13;99834.91;4970223;28;20113;-82
2022/11/12 07:23:45;;;;;;;6.55;5.68;;;;;;;4.97;82.78;99833.13;4968626;28;20041;-81
2022/11/12 07:26:20;;;;;;;6.30;4.95;;;;;;;5.08;83.42;99827.09;4970204;28;20075;-81
2022/11/12 07:28:48;;;;;;;10.20;6.90;;;;;;;5.17;82.88;99825.53;4970335;28;20039;-81
2022/11/12 07:31:16;;;;;;;10.57;8.15;;;;;;;5.22;83.31;99823.41;4970259;28;20129;-81
2022/11/12 07:33:43;;;;;;;8.73;6.82;;;;;;;5.29;83.10;99825.38;4981462;28;20058;-82
2022/11/12 07:36:12;;;;;;;6.85;6.15;;;;;;;5.29;83.00;99814.16;4970799;28;20034;-81
2022/11/12 07:38:41;;;;;;;8.27;5.97;;;;;;;5.38;83.18;99826.41;4970848;28;20138;-82
2022/11/12 07:41:10;;;;;;;7.15;5.78;;;;;;;5.46;83.19;99826.63;4963737;28;20043;-82
2022/11/12 07:43:37;;;;;;;7.40;5.45;;;;;;;5.59;83.14;99821.25;4971307;28;20045;-82
2022/11/12 07:46:10;;;;;;;8.60;5.82;;;;;;;5.56;82.23;99826.69;4970700;28;20031;-82
2022/11/12 07:48:37;;;;;;;7.43;5.78;;;;;;;5.62;82.31;99821.81;4968923;28;20043;-82
2022/11/12 07:51:11;;;;;;;7.40;5.63;;;;;;;5.62;82.63;99811.38;4972169;28;20496;-82
2022/11/12 07:53:37;;;;;;;7.63;5.45;;;;;;;5.77;82.89;99829.31;4966564;28;20467;-83
2022/11/12 07:56:04;;;;;;;5.63;4.80;;;;;;;5.80;81.97;99829.88;4968891;28;20035;-83
2022/11/12 07:58:32;;;;;;;5.82;5.00;;;;;;;5.83;82.05;99823.59;4970135;28;20039;-83
2022/11/12 08:01:18;;;;;;;5.88;4.68;;;;;;;5.78;81.44;99829.19;4968192;28;20118;-83
2022/11/12 08:03:44;;;;;;;5.22;4.72;;;;;;;5.83;82.31;99821.00;4964617;28;20034;-83
2022/11/12 08:06:09;;;;;;;8.98;5.15;;;;;;;5.84;81.98;99815.66;4969632;28;20497;-82
2022/11/12 08:08:35;;;;;;;9.52;5.70;;;;;;;5.89;82.45;99823.91;4969339;28;20047;-83
2022/11/12 08:11:00;;;;;;;9.52;5.78;;;;;;;5.99;81.83;99824.00;4969667;28;20042;-82
2022/11/12 08:13:26;;;;;;;7.45;5.72;;;;;;;6.01;81.61;99827.31;4970164;28;20098;-83
2022/11/12 08:15:51;;;;;;;10.95;6.10;;;;;;;6.04;81.11;99821.84;4972972;28;20122;-82
2022/11/12 08:18:17;;;;;;;12.90;5.63;;;;;;;5.68;80.43;99830.06;4973371;28;20502;-83
2022/11/12 08:20:43;;;;;;;19.67;7.57;;;;;;;5.38;82.16;99823.81;4973376;28;20049;-82
2022/11/12 08:23:09;;;;;;;8.30;6.82;;;;;;;5.42;83.24;99825.22;4973100;28;20124;-83
2022/11/12 08:25:35;;;;;;;9.15;6.85;;;;;;;5.45;83.72;99824.94;4971665;28;20045;-83
2022/11/12 08:28:01;;;;;;;9.68;7.40;;;;;;;5.70;83.34;99831.59;4971902;28;20430;-82
2022/11/12 08:30:28;;;;;;;8.75;6.43;;;;;;;5.92;83.43;99820.25;4973062;28;20050;-83
2022/11/12 08:33:03;;;;;;;8.05;5.95;;;;;;;6.19;83.87;99818.91;4973030;28;20486;-82
2022/11/12 08:35:29;;;;;;;8.38;5.68;;;;;;;6.43;83.00;99816.81;4972890;28;20039;-82
2022/11/12 08:38:01;;;;;;;7.57;5.80;;;;;;;6.60;81.12;99818.81;4972982;28;20027;-82
2022/11/12 08:40:29;;;;;;;7.72;5.68;;;;;;;6.69;80.13;99811.97;4973358;28;20442;-83
2022/11/12 08:43:00;;;;;;;7.57;5.72;;;;;;;6.88;80.83;99819.84;4972748;28;20039;-82
2022/11/12 08:45:26;;;;;;;;;;;;;;;7.03;80.01;99824.69;4974036;28;20046;-83
2022/11/12 08:47:51;;;;;;;7.60;5.53;;;;;;;7.16;79.75;99826.09;4972621;28;19925;-83
2022/11/12 08:50:18;;;;;;;8.02;6.18;;;;;;;7.27;78.72;99817.31;4972803;28;20054;-83
2022/11/12 08:52:43;;;;;;;6.47;5.68;;;;;;;7.34;78.26;99823.63;4973402;28;20562;-83
2022/11/12 08:55:09;;;;;;;8.48;5.70;;;;;;;7.38;78.55;99824.19;4973355;28;20035;-83
2022/11/12 08:57:42;;;;;;;7.28;5.80;;;;;;;7.49;78.51;99819.63;4973383;28;20030;-82
2022/11/12 09:00:11;;;;;;;7.63;5.70;;;;;;;7.78;78.38;99821.41;4969792;28;20046;-83
2022/11/12 09:02:37;;;;;;;8.57;6.43;;;;;;;7.92;77.19;99822.78;4977390;28;20041;-81
2022/11/12 09:05:04;;;;;;;8.07;6.22;;;;;;;8.04;76.94;99821.66;4973464;28;20081;-81
2022/11/12 09:07:31;;;;;;;8.25;6.47;;;;;;;7.97;76.32;99817.94;4972616;28;20518;-81
2022/11/12 09:09:57;;;;;;;8.18;6.80;;;;;;;7.77;77.23;99820.59;4972316;28;20043;-81
2022/11/12 09:12:22;;;;;;;8.10;6.50;;;;;;;7.91;78.41;99818.50;4971322;28;20038;-81
2022/11/12 09:14:48;;;;;;;9.13;6.68;;;;;;;8.05;78.16;99815.44;4972637;28;20047;-81
2022/11/12 09:17:14;;;;;;;7.03;6.25;;;;;;;8.11;77.14;99816.69;4973083;28;20035;-82
2022/11/12 09:19:40;;;;;;;6.50;5.70;;;;;;;7.97;77.09;99810.09;4972314;28;20035;-82
2022/11/12 09:22:06;;;;;;;7.90;6.60;;;;;;;7.83;77.84;99808.75;4973276;28;20046;-84
2022/11/12 09:24:31;;;;;;;7.35;5.30;;;;;;;7.71;77.86;99813.31;4972666;28;20034;-83
2022/11/12 09:26:57;;;;;;;6.95;6.10;;;;;;;7.72;78.44;99799.28;4971648;28;21574;-82
2022/11/12 09:29:22;;;;;;;6.30;5.50;;;;;;;8.01;78.99;99806.25;4972344;28;20042;-82
2022/11/12 09:31:48;;;;;;;6.72;5.80;;;;;;;8.05;77.71;99808.44;4971983;28;20081;-82
2022/11/12 09:34:13;;;;;;;7.00;5.85;;;;;;;8.18;77.96;99809.91;4972613;28;20037;-82
2022/11/12 09:36:39;;;;;;;7.53;6.45;;;;;;;8.06;78.25;99809.25;4972803;28;20529;-82
2022/11/12 09:39:05;;;;;;;7.30;6.18;;;;;;;8.16;78.25;99815.28;4972562;28;20463;-81
2022/11/12 09:41:40;;;;;;;7.30;6.38;;;;;;;8.25;77.75;99803.97;4972790;28;20035;-82
2022/11/12 09:44:18;;;;;;;13.85;9.88;;;;;;;8.40;78.84;99800.94;4971295;28;20093;-82
2022/11/12 09:47:06;;;;;;;7.28;6.00;;;;;;;8.56;78.19;99806.34;4972250;28;20109;-82
2022/11/12 09:49:54;;;;;;;7.45;5.70;;;;;;;8.63;78.76;99796.94;4972579;28;20523;-82
2022/11/12 09:52:25;;;;;;;7.43;5.93;;;;;;;8.66;78.22;99807.13;4972059;28;20085;-82
2022/11/12 09:55:05;;;;;;;9.02;5.90;;;;;;;8.70;79.00;99797.22;4972223;28;20034;-82
2022/11/12 09:57:31;;;;;;;6.70;5.90;;;;;;;8.74;78.72;99802.00;4972015;28;20439;-82
2022/11/12 09:59:57;;;;;;;7.55;6.38;;;;;;;8.67;77.72;99792.25;4971882;28;20156;-82
2022/11/12 10:03:00;;;;;;;8.57;6.65;;;;;;;8.73;77.06;99784.66;4968888;28;20035;-82
2022/11/12 10:05:41;;;;;;;8.48;6.88;;;;;;;8.90;77.47;99797.91;4970951;28;20062;-82
2022/11/12 10:08:47;;;;;;;;;;;;;;;8.98;77.33;99790.97;4975176;28;20074;-82
2022/11/12 10:14:58;;;;;;;7.93;6.75;;;;;;;9.14;74.81;99790.31;4984885;28;20126;-83
2022/11/12 10:17:48;;;;;;;7.80;6.55;;;;;;;9.29;75.41;99795.84;4971913;28;20027;-82
2022/11/12 10:20:26;;;;;;;8.87;6.63;;;;;;;9.42;76.36;99793.69;4970633;28;20058;-82
2022/11/12 10:23:20;;;;;;;9.70;7.05;;;;;;;9.49;74.70;99794.72;4986218;28;20539;-82
2022/11/12 10:25:50;;;;;;;9.60;7.00;;;;;;;9.50;76.93;99785.06;4985253;28;20445;-82
2022/11/12 10:28:51;;;;;;;8.10;6.77;;;;;;;9.49;74.10;99786.06;4970813;28;20121;-83
2022/11/12 10:31:20;;;;;;;8.25;6.68;;;;;;;9.52;75.67;99783.94;4970218;28;20051;-82
2022/11/12 10:33:46;;;;;;;8.27;6.68;;;;;;;9.62;77.79;99770.75;4986447;28;20042;-82
2022/11/12 10:36:24;;;;;;;7.95;6.38;;;;;;;9.51;75.56;99771.00;4969645;28;20046;-83
2022/11/12 10:38:53;;;;;;;7.18;5.97;;;;;;;9.36;75.25;99765.50;4970854;28;20035;-83
2022/11/12 10:41:27;;;;;;;7.05;6.32;;;;;;;9.18;76.78;99765.50;4970863;28;20110;-83
2022/11/12 10:44:04;;;;;;;8.18;6.35;;;;;;;8.99;76.93;99763.00;4969922;28;20040;-82
2022/11/12 10:46:37;;;;;;;7.55;6.68;;;;;;;8.88;78.14;99750.16;4971250;28;20038;-83
2022/11/12 10:49:15;;;;;;;8.93;7.30;;;;;;;8.88;78.91;99752.78;4970813;28;20666;-83
2022/11/12 10:51:54;;;;;;;7.97;6.70;;;;;;;8.87;79.69;99756.34;4969856;28;20399;-82
2022/11/12 10:54:29;;;;;;;8.65;6.97;;;;;;;9.05;79.99;99755.38;4971238;28;20065;-82
2022/11/12 10:56:55;;;;;;;9.95;7.22;;;;;;;9.18;78.90;99738.50;4983877;28;20031;-82
2022/11/12 10:59:24;;;;;;;7.85;7.05;;;;;;;9.13;79.02;99746.78;4969639;28;20045;-82
2022/11/12 11:02:00;;;;;;;8.73;7.53;;;;;;;9.16;79.80;99743.84;4967382;28;20039;-83
2022/11/12 11:04:37;;;;;;;8.75;7.22;;;;;;;9.19;78.66;99740.97;4970804;28;20043;-83
2022/11/12 11:07:23;;;;;;;9.82;6.78;;;;;;;9.06;79.20;99748.38;4968596;28;20038;-83
2022/11/12 11:09:54;;;;;;;8.55;7.13;;;;;;;8.87;80.25;99738.84;4970271;28;20047;-83
2022/11/12 11:12:39;;;;;;;7.88;7.07;;;;;;;8.90;80.00;99741.16;4969603;28;20047;-83
2022/11/12 11:15:21;;;;;;;7.35;6.53;;;;;;;9.00;80.21;99741.13;4969589;28;20097;-83
2022/11/12 11:17:47;;;;;;;8.95;6.82;;;;;;;9.00;79.77;99735.88;4984639;28;20030;-83
2022/11/12 11:20:16;;;;;;;7.78;6.85;;;;;;;9.08;79.90;99742.00;4970237;28;20042;-84
2022/11/12 11:22:47;;;;;;;9.25;7.18;;;;;;;9.16;79.47;99737.81;4970604;28;20035;-83
2022/11/12 11:25:34;;;;;;;9.30;7.40;;;;;;;9.35;78.61;99733.22;4970988;28;20034;-83
2022/11/12 11:28:29;;;;;;;8.10;7.30;;;;;;;9.63;79.50;99727.88;4969176;28;20114;-82
2022/11/12 11:31:50;;;;;;;8.98;6.93;;;;;;;9.63;78.09;99723.44;4969701;28;20043;-82
2022/11/12 11:34:33;;;;;;;8.70;7.40;;;;;;;9.73;77.99;99722.53;4969286;28;20499;-82
2022/11/12 11:37:25;;;;;;;8.35;6.97;;;;;;;9.75;78.09;99721.38;4969937;28;20035;-83
2022/11/12 11:40:12;;;;;;;8.85;7.28;;;;;;;9.88;78.48;99716.53;4968337;28;20042;-83
2022/11/12 11:43:21;;;;;;;9.07;7.82;;;;;;;10.21;80.52;99714.09;4970702;28;20077;-82
2022/11/12 11:46:17;;;;;;;7.65;6.85;;;;;;;10.58;77.25;99707.69;4968887;28;20121;-82
2022/11/12 11:49:37;;;;;;;8.25;7.28;;;;;;;10.79;76.22;99705.44;4969165;28;20030;-82
2022/11/12 11:52:45;;;;;;;8.13;6.70;;;;;;;10.93;75.32;99707.44;4968846;28;20618;-82
2022/11/12 11:55:52;;;;;;;10.15;7.40;;;;;;;11.08;76.36;99702.34;4970858;28;20037;-82
2022/11/12 11:58:58;;;;;;;8.75;6.95;;;;;;;11.33;76.12;99695.28;4968355;28;20043;-83
2022/11/12 12:01:54;;;;;;;8.60;7.15;;;;;;;11.41;74.13;99703.19;4966110;28;20112;-82
2022/11/12 12:04:48;;;;;;;8.45;6.95;;;;;;;11.52;73.52;99696.78;4969363;28;20039;-83
2022/11/12 12:07:36;;;;;;;7.80;6.97;;;;;;;11.40;73.24;99698.91;4970201;28;20038;-82
2022/11/12 12:10:11;;;;;;;9.05;7.72;;;;;;;11.60;74.34;99693.28;4969062;28;20113;-82
2022/11/12 12:13:08;;;;;;;8.13;7.25;;;;;;;11.66;71.64;99692.63;4966972;28;20035;-83
2022/11/12 12:16:07;;;;;;;9.23;7.57;;;;;;;11.68;71.01;99683.56;4968589;28;20077;-82
2022/11/12 12:19:11;;;;;;;9.23;7.72;;;;;;;11.73;72.04;99683.06;4968524;28;20105;-82
2022/11/12 12:21:45;;;;;;;8.05;7.13;;;;;;;11.68;71.04;99690.63;4968643;28;20042;-82
2022/11/12 12:24:29;;;;;;;8.18;7.10;;;;;;;11.64;71.65;99678.84;4970347;28;20035;-82